Time;durP1;ratioP1;P1;durP2;ratioP2;P2;SDS_P1;SDS_P2;PMS_P1;PMS_P2;Temp;Humidity;BMP_temperature;BMP_pressure;BME280_temperature;BME280_humidity;BME280_pressure;Samples;Min_cycle;Max_cycle;Signal;HPM_P1;HPM_P2
2021/07/04 00:01:50;;;;;;;;;;;16.30;99.90;;;;;;5099305;28;19928;-73
2021/07/04 00:04:17;;;;;;;;;;;16.30;99.90;;;;;;5099052;28;19935;-73
2021/07/04 00:06:44;;;;;;;;;;;16.30;99.90;;;;;;5098972;28;19924;-73
2021/07/04 00:09:11;;;;;;;;;;;16.30;99.90;;;;;;5099178;28;20028;-73
2021/07/04 00:11:37;;;;;;;;;;;16.30;99.90;;;;;;5098987;28;20298;-73
2021/07/04 00:14:06;;;;;;;;;;;16.30;99.90;;;;;;5098830;28;19938;-77
2021/07/04 00:16:32;;;;;;;;;;;16.30;99.90;;;;;;5099298;28;19925;-74
2021/07/04 00:19:00;;;;;;;;;;;16.30;99.90;;;;;;5098965;28;19928;-74
2021/07/04 00:21:26;;;;;;;;;;;16.30;99.90;;;;;;5096792;28;19935;-74
2021/07/04 00:23:53;;;;;;;;;;;16.40;99.90;;;;;;5098563;28;19946;-74
2021/07/04 00:26:22;;;;;;;;;;;16.30;99.90;;;;;;5098843;28;19932;-74
2021/07/04 00:28:49;;;;;;;;;;;16.30;99.90;;;;;;5098878;28;19924;-74
2021/07/04 00:31:17;;;;;;;;;;;16.30;99.90;;;;;;5098514;28;19950;-74
2021/07/04 00:33:44;;;;;;;;;;;16.40;99.90;;;;;;5098512;28;19924;-74
2021/07/04 00:36:11;;;;;;;;;;;16.40;99.90;;;;;;5098572;28;20336;-74
2021/07/04 00:38:38;;;;;;;;;;;16.40;99.90;;;;;;5098742;28;19950;-74
2021/07/04 00:41:04;;;;;;;;;;;16.40;99.90;;;;;;5098377;28;19939;-74
2021/07/04 00:43:31;;;;;;;;;;;16.40;99.90;;;;;;5098356;28;20374;-73
2021/07/04 00:45:58;;;;;;;;;;;16.40;99.90;;;;;;5098323;28;20376;-73
2021/07/04 00:48:26;;;;;;;;;;;16.40;99.90;;;;;;5098032;28;19924;-73
2021/07/04 00:50:53;;;;;;;;;;;16.40;99.90;;;;;;5097894;28;20267;-73
2021/07/04 00:53:21;;;;;;;;;;;16.40;99.90;;;;;;5098088;28;19950;-73
2021/07/04 00:55:48;;;;;;;;;;;16.40;99.90;;;;;;5098076;28;19930;-73
2021/07/04 00:58:15;;;;;;;;;;;16.40;99.90;;;;;;5098051;28;19924;-74
2021/07/04 01:00:44;;;;;;;;;;;16.40;99.90;;;;;;5098351;28;19947;-74
2021/07/04 01:03:10;;;;;;;;;;;16.40;99.90;;;;;;5098212;28;20019;-74
2021/07/04 01:05:39;;;;;;;;;;;16.40;99.90;;;;;;5097997;28;19924;-74
2021/07/04 01:08:06;;;;;;;;;;;16.40;99.90;;;;;;5097851;28;19924;-74
2021/07/04 01:10:33;;;;;;;;;;;16.40;99.90;;;;;;5097804;28;19924;-73
2021/07/04 01:13:00;;;;;;;;;;;16.40;99.90;;;;;;5097708;28;19934;-74
2021/07/04 01:15:27;;;;;;;;;;;16.40;99.90;;;;;;5097799;28;19975;-74
2021/07/04 01:17:54;;;;;;;;;;;16.40;99.90;;;;;;5097663;28;20340;-74
2021/07/04 01:20:21;;;;;;;;;;;16.40;99.90;;;;;;5097728;28;19935;-74
2021/07/04 01:22:54;;;;;;;;;;;16.40;99.90;;;;;;5097538;28;20262;-74
2021/07/04 01:25:21;;;;;;;;;;;16.40;99.90;;;;;;5097788;28;19934;-74
2021/07/04 01:27:48;;;;;;;;;;;16.40;99.90;;;;;;5097935;28;19924;-73
2021/07/04 01:30:16;;;;;;;;;;;16.40;99.90;;;;;;5097631;28;19934;-74
2021/07/04 01:32:43;;;;;;;;;;;16.40;99.90;;;;;;5097667;28;19924;-74
2021/07/04 01:35:10;;;;;;;;;;;16.40;99.90;;;;;;5097389;28;19930;-74
2021/07/04 01:37:37;;;;;;;;;;;16.40;99.90;;;;;;5097625;28;19928;-74
2021/07/04 01:40:06;;;;;;;;;;;16.40;99.90;;;;;;5097511;28;19931;-74
2021/07/04 01:42:33;;;;;;;;;;;16.40;99.90;;;;;;5097298;28;20356;-81
2021/07/04 01:45:01;;;;;;;;;;;16.40;99.90;;;;;;5097436;28;19924;-74
2021/07/04 01:47:28;;;;;;;;;;;16.40;99.90;;;;;;5097495;28;19935;-74
2021/07/04 01:49:55;;;;;;;;;;;16.40;99.90;;;;;;5096925;28;20261;-74
2021/07/04 01:52:21;;;;;;;;;;;16.30;99.90;;;;;;5097003;28;19934;-74
2021/07/04 01:54:48;;;;;;;;;;;16.30;99.90;;;;;;5097064;28;19924;-73
2021/07/04 01:57:17;;;;;;;;;;;16.30;99.90;;;;;;5097267;28;19924;-74
2021/07/04 01:59:44;;;;;;;;;;;16.30;99.90;;;;;;5096938;28;19967;-74
2021/07/04 02:02:11;;;;;;;;;;;16.30;99.90;;;;;;5096947;28;19928;-74
2021/07/04 02:04:39;;;;;;;;;;;16.30;99.90;;;;;;5096938;28;20256;-74
2021/07/04 02:07:05;;;;;;;;;;;16.30;99.90;;;;;;5096770;28;19924;-74
2021/07/04 02:09:32;;;;;;;;;;;16.30;99.90;;;;;;5096966;28;19945;-74
2021/07/04 02:11:59;;;;;;;;;;;16.20;99.90;;;;;;5096336;28;19928;-74
2021/07/04 02:14:30;;;;;;;;;;;16.20;99.90;;;;;;5096544;28;20014;-74
2021/07/04 02:16:58;;;;;;;;;;;16.20;99.90;;;;;;5096659;28;19974;-74
2021/07/04 02:19:31;;;;;;;;;;;16.20;99.90;;;;;;5096433;28;20263;-74
2021/07/04 02:21:57;;;;;;;;;;;16.20;99.90;;;;;;5096688;28;19924;-74
2021/07/04 02:24:24;;;;;;;;;;;16.20;99.90;;;;;;5096458;28;20362;-74
2021/07/04 02:26:51;;;;;;;;;;;16.20;99.90;;;;;;5096438;28;19928;-74
2021/07/04 02:29:18;;;;;;;;;;;16.20;99.90;;;;;;5096410;28;19938;-74
2021/07/04 02:31:46;;;;;;;;;;;16.20;99.90;;;;;;5096211;28;19924;-74
2021/07/04 02:34:13;;;;;;;;;;;16.20;99.90;;;;;;5096128;28;19934;-74
2021/07/04 02:36:40;;;;;;;;;;;16.20;99.90;;;;;;5096504;28;19924;-74
2021/07/04 02:39:07;;;;;;;;;;;16.20;99.90;;;;;;5096094;28;20267;-74
2021/07/04 02:41:34;;;;;;;;;;;16.20;99.90;;;;;;5096091;28;20356;-74
2021/07/04 02:44:01;;;;;;;;;;;16.20;99.90;;;;;;5095973;28;20025;-74
2021/07/04 02:46:28;;;;;;;;;;;16.20;99.90;;;;;;5096251;28;19924;-74
2021/07/04 02:48:56;;;;;;;;;;;16.20;99.90;;;;;;5096022;28;19924;-74
2021/07/04 02:51:23;;;;;;;;;;;16.20;99.90;;;;;;5096012;28;19930;-74
2021/07/04 02:53:49;;;;;;;;;;;16.10;99.90;;;;;;5095960;28;20362;-74
2021/07/04 02:56:16;;;;;;;;;;;16.20;99.90;;;;;;5095985;28;19924;-74
2021/07/04 02:58:43;;;;;;;;;;;16.10;99.90;;;;;;5095987;28;19934;-74
2021/07/04 03:01:10;;;;;;;;;;;16.10;99.90;;;;;;5095902;28;20374;-74
2021/07/04 03:03:37;;;;;;;;;;;16.10;99.90;;;;;;5095757;28;19935;-75
2021/07/04 03:06:05;;;;;;;;;;;16.10;99.90;;;;;;5095705;28;19930;-74
2021/07/04 03:08:32;;;;;;;;;;;16.10;99.90;;;;;;5095743;28;19928;-74
2021/07/04 03:10:59;;;;;;;;;;;16.00;99.90;;;;;;5095659;28;19938;-74
2021/07/04 03:13:26;;;;;;;;;;;16.00;99.90;;;;;;5095861;28;19931;-74
2021/07/04 03:15:52;;;;;;;;;;;16.00;99.90;;;;;;5095483;28;20221;-74
2021/07/04 03:18:19;;;;;;;;;;;15.90;99.90;;;;;;5095577;28;19928;-74
2021/07/04 03:20:46;;;;;;;;;;;15.90;99.90;;;;;;5095569;28;19936;-74
2021/07/04 03:23:14;;;;;;;;;;;15.90;99.90;;;;;;5095027;28;20359;-74
2021/07/04 03:25:41;;;;;;;;;;;15.80;99.90;;;;;;5095256;28;20366;-74
2021/07/04 03:28:08;;;;;;;;;;;15.80;99.90;;;;;;5095202;28;20267;-74
2021/07/04 03:30:35;;;;;;;;;;;15.70;99.90;;;;;;5095279;28;19924;-74
2021/07/04 03:33:02;;;;;;;;;;;15.70;99.90;;;;;;5094965;28;19928;-74
2021/07/04 03:35:29;;;;;;;;;;;15.60;99.90;;;;;;5095102;28;19924;-74
2021/07/04 03:37:55;;;;;;;;;;;15.60;99.90;;;;;;5095557;28;19924;-74
2021/07/04 03:40:24;;;;;;;;;;;15.50;99.90;;;;;;5095346;28;19928;-74
2021/07/04 03:42:51;;;;;;;;;;;15.50;99.90;;;;;;5095349;28;19924;-74
2021/07/04 03:45:17;;;;;;;;;;;15.40;99.90;;;;;;5095189;28;20252;-74
2021/07/04 03:47:44;;;;;;;;;;;15.40;99.90;;;;;;5095545;28;19924;-74
2021/07/04 03:50:12;;;;;;;;;;;15.30;99.90;;;;;;5095035;28;19924;-74
2021/07/04 03:52:39;;;;;;;;;;;15.30;99.90;;;;;;5095119;28;19924;-74
2021/07/04 03:55:06;;;;;;;;;;;15.20;99.90;;;;;;5094923;28;19934;-74
2021/07/04 03:57:34;;;;;;;;;;;15.20;99.90;;;;;;5094990;28;19938;-74
2021/07/04 04:00:01;;;;;;;;;;;15.20;99.90;;;;;;5095495;28;19924;-74
2021/07/04 04:02:28;;;;;;;;;;;15.20;99.90;;;;;;5094972;28;19935;-75
2021/07/04 04:04:55;;;;;;;;;;;15.20;99.90;;;;;;5094882;28;19934;-74
2021/07/04 04:07:22;;;;;;;;;;;15.20;99.90;;;;;;5094576;28;20356;-74
2021/07/04 04:09:51;;;;;;;;;;;15.20;99.90;;;;;;5094909;28;19924;-74
2021/07/04 04:12:18;;;;;;;;;;;15.20;99.90;;;;;;5095075;28;19931;-74
2021/07/04 04:14:46;;;;;;;;;;;15.10;99.90;;;;;;5094861;28;19934;-74
2021/07/04 04:17:13;;;;;;;;;;;15.10;99.90;;;;;;5095160;28;19924;-74
2021/07/04 04:19:40;;;;;;;;;;;15.10;99.90;;;;;;5094839;28;19934;-74
2021/07/04 04:22:07;;;;;;;;;;;15.10;99.90;;;;;;5094796;28;20296;-75
2021/07/04 04:24:34;;;;;;;;;;;15.10;99.90;;;;;;5094801;28;19971;-74
2021/07/04 04:27:01;;;;;;;;;;;15.20;99.90;;;;;;5094712;28;19934;-74
2021/07/04 04:29:27;;;;;;;;;;;15.20;99.90;;;;;;5095250;28;19931;-74
2021/07/04 04:31:56;;;;;;;;;;;15.20;99.90;;;;;;5095020;28;19924;-74
2021/07/04 04:34:22;;;;;;;;;;;15.30;99.90;;;;;;5094593;28;20332;-74
2021/07/04 04:36:49;;;;;;;;;;;15.30;99.90;;;;;;5098401;28;19935;-74
2021/07/04 04:39:16;;;;;;;;;;;15.40;99.90;;;;;;5098636;28;19924;-74
2021/07/04 04:41:43;;;;;;;;;;;15.40;99.90;;;;;;5098639;28;19924;-74
2021/07/04 04:44:10;;;;;;;;;;;15.40;99.90;;;;;;5098488;28;19938;-74
2021/07/04 04:46:37;;;;;;;;;;;15.50;99.90;;;;;;5098639;28;19934;-74
2021/07/04 04:49:05;;;;;;;;;;;15.50;99.90;;;;;;5098690;28;19928;-74
2021/07/04 04:51:32;;;;;;;;;;;15.50;99.90;;;;;;5118613;28;20336;-74
2021/07/04 04:53:59;;;;;;;;;;;15.60;99.90;;;;;;5118515;28;20034;-74
2021/07/04 04:56:25;;;;;;;;;;;15.60;99.90;;;;;;5118504;28;19934;-74
2021/07/04 04:58:52;;;;;;;;;;;15.70;99.90;;;;;;5118435;28;19938;-74
2021/07/04 05:01:19;;;;;;;;;;;15.70;99.90;;;;;;5118557;28;19923;-74
2021/07/04 05:03:46;;;;;;;;;;;15.70;99.90;;;;;;5118521;28;19923;-74
2021/07/04 05:06:14;;;;;;;;;;;15.80;99.90;;;;;;5118346;28;19957;-74
2021/07/04 05:08:41;;;;;;;;;;;15.80;99.90;;;;;;5118390;28;19928;-74
2021/07/04 05:11:09;;;;;;;;;;;15.80;99.90;;;;;;5118666;28;19934;-74
2021/07/04 05:13:36;;;;;;;;;;;15.90;99.90;;;;;;5118419;28;20339;-74
2021/07/04 05:16:03;;;;;;;;;;;15.90;99.90;;;;;;5118356;28;20030;-74
2021/07/04 05:18:30;;;;;;;;;;;16.00;99.90;;;;;;5118156;28;20263;-74
2021/07/04 05:20:57;;;;;;;;;;;16.00;99.90;;;;;;5117818;28;19977;-74
2021/07/04 05:23:25;;;;;;;;;;;16.10;99.90;;;;;;5118273;28;20259;-74
2021/07/04 05:25:53;;;;;;;;;;;16.10;99.90;;;;;;5118063;28;19923;-74
2021/07/04 05:28:20;;;;;;;;;;;16.10;99.90;;;;;;5118170;28;19924;-74
2021/07/04 05:30:47;;;;;;;;;;;16.20;99.90;;;;;;5117946;28;19923;-74
2021/07/04 05:33:14;;;;;;;;;;;16.20;99.90;;;;;;5117898;28;20259;-74
2021/07/04 05:35:40;;;;;;;;;;;16.30;99.90;;;;;;5117873;28;19930;-74
2021/07/04 05:38:11;;;;;;;;;;;16.30;99.90;;;;;;5117679;28;19924;-73
2021/07/04 05:40:39;;;;;;;;;;;16.40;99.90;;;;;;5117949;28;19923;-73
2021/07/04 05:43:06;;;;;;;;;;;16.30;99.90;;;;;;5117791;28;19934;-74
2021/07/04 05:45:33;;;;;;;;;;;16.40;99.90;;;;;;5117665;28;19927;-74
2021/07/04 05:48:00;;;;;;;;;;;16.40;99.90;;;;;;5116669;28;19927;-74
2021/07/04 05:50:26;;;;;;;;;;;16.40;99.90;;;;;;5117404;28;20014;-73
2021/07/04 05:52:53;;;;;;;;;;;16.40;99.90;;;;;;5097597;28;19924;-74
2021/07/04 05:55:22;;;;;;;;;;;16.40;99.90;;;;;;5096943;28;19924;-74
2021/07/04 05:57:50;;;;;;;;;;;16.40;99.90;;;;;;5097171;28;20256;-73
2021/07/04 06:00:18;;;;;;;;;;;16.40;99.90;;;;;;5097070;28;19924;-74
2021/07/04 06:02:44;;;;;;;;;;;16.40;99.90;;;;;;5096793;28;19924;-73
2021/07/04 06:05:13;;;;;;;;;;;16.40;99.90;;;;;;5096781;28;20010;-73
2021/07/04 06:07:40;;;;;;;;;;;16.50;99.90;;;;;;5096754;28;19982;-73
2021/07/04 06:10:07;;;;;;;;;;;16.50;99.90;;;;;;5097146;28;19924;-73
2021/07/04 06:12:34;;;;;;;;;;;16.60;99.90;;;;;;5096617;28;19928;-74
2021/07/04 06:15:02;;;;;;;;;;;16.60;99.90;;;;;;5096904;28;19924;-74
2021/07/04 06:17:29;;;;;;;;;;;16.70;99.90;;;;;;5096544;28;19924;-73
2021/07/04 06:19:56;;;;;;;;;;;16.80;99.90;;;;;;5096756;28;20355;-74
2021/07/04 06:22:23;;;;;;;;;;;16.80;99.90;;;;;;5096647;28;19934;-74
2021/07/04 06:24:50;;;;;;;;;;;16.90;99.90;;;;;;5096358;28;19924;-74
2021/07/04 06:27:17;;;;;;;;;;;16.90;99.90;;;;;;5096558;28;19935;-74
2021/07/04 06:29:43;;;;;;;;;;;16.90;99.90;;;;;;5096722;28;19928;-74
2021/07/04 06:32:12;;;;;;;;;;;16.90;99.90;;;;;;5096262;28;20255;-74
2021/07/04 06:34:38;;;;;;;;;;;17.00;99.90;;;;;;5096622;28;19928;-74
2021/07/04 06:37:05;;;;;;;;;;;17.00;99.90;;;;;;5096364;28;19923;-74
2021/07/04 06:39:32;;;;;;;;;;;17.20;99.90;;;;;;5096343;28;19957;-74
2021/07/04 06:41:59;;;;;;;;;;;17.20;99.90;;;;;;5096176;28;19928;-74
2021/07/04 06:44:26;;;;;;;;;;;17.30;99.90;;;;;;5096270;28;19950;-74
2021/07/04 06:46:53;;;;;;;;;;;17.40;99.90;;;;;;5096203;28;19964;-74
2021/07/04 06:49:21;;;;;;;;;;;17.40;99.90;;;;;;5096034;28;19931;-74
2021/07/04 06:51:48;;;;;;;;;;;17.50;99.90;;;;;;5095946;28;19934;-74
2021/07/04 06:54:15;;;;;;;;;;;17.50;99.90;;;;;;5096326;28;19935;-74
2021/07/04 06:56:42;;;;;;;;;;;17.60;99.90;;;;;;5096236;28;19935;-74
2021/07/04 06:59:09;;;;;;;;;;;17.70;99.90;;;;;;5095746;28;19934;-74
2021/07/04 07:01:35;;;;;;;;;;;17.80;99.90;;;;;;5096123;28;19928;-74
2021/07/04 07:04:02;;;;;;;;;;;17.80;99.90;;;;;;5095899;28;19924;-74
2021/07/04 07:06:31;;;;;;;;;;;17.80;99.90;;;;;;5095514;28;20336;-74
2021/07/04 07:08:57;;;;;;;;;;;17.70;99.90;;;;;;5095615;28;19924;-74
2021/07/04 07:11:24;;;;;;;;;;;17.70;99.90;;;;;;5095631;28;19928;-74
2021/07/04 07:13:51;;;;;;;;;;;17.60;99.90;;;;;;5095919;28;19923;-74
2021/07/04 07:16:18;;;;;;;;;;;17.60;99.90;;;;;;5095522;28;19934;-74
2021/07/04 07:18:45;;;;;;;;;;;17.70;99.90;;;;;;5095755;28;19934;-74
2021/07/04 07:21:11;;;;;;;;;;;17.60;99.90;;;;;;5095492;28;20389;-74
2021/07/04 07:23:40;;;;;;;;;;;17.60;99.90;;;;;;5095410;28;19924;-74
2021/07/04 07:26:07;;;;;;;;;;;17.60;99.90;;;;;;5095690;28;19930;-74
2021/07/04 07:28:33;;;;;;;;;;;17.70;99.90;;;;;;5095355;28;19928;-74
2021/07/04 07:31:00;;;;;;;;;;;17.70;99.90;;;;;;5095296;28;20256;-74
2021/07/04 07:33:27;;;;;;;;;;;17.80;99.90;;;;;;5095587;28;20289;-74
2021/07/04 07:35:54;;;;;;;;;;;17.90;99.90;;;;;;5095224;28;19935;-74
2021/07/04 07:38:21;;;;;;;;;;;18.10;99.90;;;;;;5095341;28;19934;-74
2021/07/04 07:40:49;;;;;;;;;;;18.10;99.90;;;;;;5095227;28;19932;-74
2021/07/04 07:43:16;;;;;;;;;;;18.20;99.90;;;;;;5095099;28;19924;-74
2021/07/04 07:45:45;;;;;;;;;;;18.40;99.90;;;;;;5095430;28;20341;-74
2021/07/04 07:48:12;;;;;;;;;;;18.60;99.90;;;;;;5095505;28;20024;-74
2021/07/04 07:50:39;;;;;;;;;;;18.60;99.90;;;;;;5095185;28;19932;-74
2021/07/04 07:53:06;;;;;;;;;;;18.60;99.90;;;;;;5095151;28;20356;-74
2021/07/04 07:55:33;;;;;;;;;;;18.50;99.90;;;;;;5095014;28;19924;-75
2021/07/04 07:58:01;;;;;;;;;;;18.50;99.90;;;;;;5094954;28;19935;-75
2021/07/04 08:00:28;;;;;;;;;;;18.50;99.90;;;;;;5095263;28;19924;-74
2021/07/04 08:02:55;;;;;;;;;;;18.50;99.90;;;;;;5095157;28;20016;-75
2021/07/04 08:05:22;;;;;;;;;;;18.50;99.90;;;;;;5095132;28;19925;-75
2021/07/04 08:07:49;;;;;;;;;;;18.50;99.90;;;;;;5094909;28;19924;-75
2021/07/04 08:10:16;;;;;;;;;;;18.50;99.90;;;;;;5095934;28;19924;-75
2021/07/04 08:12:42;;;;;;;;;;;18.60;99.90;;;;;;5099312;28;19924;-75
2021/07/04 08:15:12;;;;;;;;;;;18.70;99.90;;;;;;5099130;28;19935;-75
2021/07/04 08:17:38;;;;;;;;;;;18.80;99.90;;;;;;5099070;28;19925;-75
2021/07/04 08:20:06;;;;;;;;;;;18.70;99.90;;;;;;5098906;28;19928;-75
2021/07/04 08:22:32;;;;;;;;;;;18.70;99.90;;;;;;5099024;28;19924;-75
2021/07/04 08:24:59;;;;;;;;;;;18.60;99.90;;;;;;5099063;28;19928;-75
2021/07/04 08:27:26;;;;;;;;;;;18.50;99.90;;;;;;5098923;28;20031;-75
2021/07/04 08:29:53;;;;;;;;;;;18.50;99.90;;;;;;5098896;28;19924;-75
2021/07/04 08:32:21;;;;;;;;;;;18.40;99.90;;;;;;5098833;28;19924;-75
2021/07/04 08:34:48;;;;;;;;;;;18.30;99.90;;;;;;5098622;28;19935;-75
2021/07/04 08:37:15;;;;;;;;;;;18.20;99.90;;;;;;5098824;28;19928;-75
2021/07/04 08:39:42;;;;;;;;;;;18.20;99.90;;;;;;5098702;28;19932;-75
2021/07/04 08:42:09;;;;;;;;;;;18.20;99.90;;;;;;5098563;28;19924;-75
2021/07/04 08:44:36;;;;;;;;;;;18.20;99.90;;;;;;5098576;28;19924;-75
2021/07/04 08:47:03;;;;;;;;;;;18.40;99.90;;;;;;5098661;28;19934;-75
2021/07/04 08:49:31;;;;;;;;;;;18.80;99.90;;;;;;5098405;28;19924;-75
2021/07/04 08:51:58;;;;;;;;;;;19.10;99.90;;;;;;5098433;28;19924;-75
2021/07/04 08:54:25;;;;;;;;;;;19.50;99.90;;;;;;5098217;28;19928;-75
2021/07/04 08:56:52;;;;;;;;;;;19.70;99.90;;;;;;5098429;28;20279;-75
2021/07/04 08:59:19;;;;;;;;;;;20.00;99.90;;;;;;5098242;28;19935;-75
2021/07/04 09:01:49;;;;;;;;;;;20.10;99.90;;;;;;5098083;28;19924;-76
2021/07/04 09:04:18;;;;;;;;;;;20.10;99.90;;;;;;5098028;28;19942;-76
2021/07/04 09:06:47;;;;;;;;;;;20.00;99.90;;;;;;5097739;28;19928;-75
2021/07/04 09:09:17;;;;;;;;;;;20.00;99.90;;;;;;5097998;28;19924;-76
2021/07/04 09:11:50;;;;;;;;;;;20.00;99.90;;;;;;5097848;28;19924;-74
2021/07/04 09:14:17;;;;;;;;;;;20.20;99.90;;;;;;5098067;28;19924;-73
2021/07/04 09:16:47;;;;;;;;;;;20.30;99.90;;;;;;5097763;28;20259;-75
2021/07/04 09:19:16;;;;;;;;;;;20.30;99.90;;;;;;5097789;28;19930;-75
2021/07/04 09:21:42;;;;;;;;;;;20.20;99.90;;;;;;5096258;28;19924;-75
2021/07/04 09:24:23;;;;;;;;;;;20.10;99.90;;;;;;5097924;28;19924;-75
2021/07/04 09:26:50;;;;;;;;;;;19.90;99.90;;;;;;5097592;28;20318;-75
2021/07/04 09:29:17;;;;;;;;;;;19.80;99.90;;;;;;5097546;28;19931;-75
2021/07/04 09:31:43;;;;;;;;;;;19.80;99.90;;;;;;5097646;28;19924;-75
2021/07/04 09:34:11;;;;;;;;;;;19.80;99.90;;;;;;5097448;28;20280;-75
2021/07/04 09:36:39;;;;;;;;;;;19.70;99.90;;;;;;5097507;28;19924;-75
2021/07/04 09:39:16;;;;;;;;;;;19.50;99.90;;;;;;5097557;28;19928;-75
2021/07/04 09:41:58;;;;;;;;;;;19.30;99.90;;;;;;5096624;28;19942;-76
2021/07/04 09:44:26;;;;;;;;;;;19.20;99.90;;;;;;5097057;28;19924;-76
2021/07/04 09:47:07;;;;;;;;;;;18.90;99.90;;;;;;5097757;28;19935;-76
2021/07/04 09:49:34;;;;;;;;;;;18.70;99.90;;;;;;5097209;28;19928;-76
2021/07/04 09:52:11;;;;;;;;;;;18.40;99.90;;;;;;5097118;28;19934;-75
2021/07/04 09:54:38;;;;;;;;;;;18.20;99.90;;;;;;5097160;28;19935;-75
2021/07/04 09:57:06;;;;;;;;;;;18.00;99.90;;;;;;5096898;28;19924;-75
2021/07/04 09:59:34;;;;;;;;;;;17.80;99.90;;;;;;5096975;28;19974;-74
2021/07/04 10:02:01;;;;;;;;;;;17.70;99.90;;;;;;5097104;28;19931;-75
2021/07/04 10:04:28;;;;;;;;;;;17.60;99.90;;;;;;5096916;28;19950;-75
2021/07/04 10:06:55;;;;;;;;;;;17.60;99.90;;;;;;5096830;28;19928;-76
2021/07/04 10:09:25;;;;;;;;;;;17.50;99.90;;;;;;5096760;28;20267;-75
2021/07/04 10:11:52;;;;;;;;;;;17.30;99.90;;;;;;5096666;28;19971;-74
2021/07/04 10:14:18;;;;;;;;;;;17.20;99.90;;;;;;5097123;28;19924;-75
2021/07/04 10:16:47;;;;;;;;;;;17.10;99.90;;;;;;5096781;28;19928;-72
2021/07/04 10:19:15;;;;;;;;;;;17.00;99.90;;;;;;5096466;28;19932;-74
2021/07/04 10:21:41;;;;;;;;;;;16.90;99.90;;;;;;5096480;28;19924;-75
2021/07/04 10:24:08;;;;;;;;;;;16.80;99.90;;;;;;5096499;28;19924;-75
2021/07/04 10:26:35;;;;;;;;;;;16.70;99.90;;;;;;5096677;28;19924;-75
2021/07/04 10:29:04;;;;;;;;;;;16.60;99.90;;;;;;5094497;28;19932;-75
2021/07/04 10:31:31;;;;;;;;;;;16.60;99.90;;;;;;5096507;28;19924;-75
2021/07/04 10:34:06;;;;;;;;;;;16.60;99.90;;;;;;5096183;28;19924;-75
2021/07/04 10:36:35;;;;;;;;;;;16.60;99.90;;;;;;5096069;28;19934;-76
2021/07/04 10:39:03;;;;;;;;;;;16.60;99.90;;;;;;5095920;28;19936;-75
2021/07/04 10:41:30;;;;;;;;;;;16.60;99.90;;;;;;5095984;28;19970;-75
2021/07/04 10:44:07;;;;;;;;;;;16.60;99.90;;;;;;5096557;28;19934;-75
2021/07/04 10:46:52;;;;;;;;;;;16.70;99.90;;;;;;5096189;28;19938;-75
2021/07/04 10:49:21;;;;;;;;;;;16.70;99.90;;;;;;5096016;28;19924;-75
2021/07/04 10:51:54;;;;;;;;;;;16.70;99.90;;;;;;5095948;28;19924;-75
2021/07/04 10:54:36;;;;;;;;;;;16.70;99.90;;;;;;5096406;28;19924;-75
2021/07/04 10:57:06;;;;;;;;;;;16.70;99.90;;;;;;5095798;28;19934;-75
2021/07/04 10:59:33;;;;;;;;;;;16.70;99.90;;;;;;5095746;28;19924;-75
2021/07/04 11:02:00;;;;;;;;;;;16.80;99.90;;;;;;5095766;28;19924;-75
2021/07/04 11:04:45;;;;;;;;;;;16.80;99.90;;;;;;5095993;28;19935;-74
2021/07/04 11:07:14;;;;;;;;;;;16.70;99.90;;;;;;5095872;28;19924;-75
2021/07/04 11:09:59;;;;;;;;;;;16.70;99.90;;;;;;5095666;28;20237;-75
2021/07/04 11:12:28;;;;;;;;;;;16.60;99.90;;;;;;5095046;28;21262;-74
2021/07/04 11:15:13;;;;;;;;;;;16.60;99.90;;;;;;5095826;28;19935;-74
2021/07/04 11:17:59;;;;;;;;;;;16.60;99.90;;;;;;5095631;28;19930;-74
2021/07/04 11:20:26;;;;;;;;;;;16.60;99.90;;;;;;5095757;28;19934;-74
2021/07/04 11:22:58;;;;;;;;;;;16.60;99.90;;;;;;5095327;28;19924;-75
2021/07/04 11:25:25;;;;;;;;;;;16.70;99.90;;;;;;5095258;28;20264;-74
2021/07/04 11:28:06;;;;;;;;;;;16.70;99.90;;;;;;5095485;28;19924;-75
2021/07/04 11:30:33;;;;;;;;;;;16.70;99.90;;;;;;5095345;28;19924;-75
2021/07/04 11:33:24;;;;;;;;;;;16.70;99.90;;;;;;5095076;28;19924;-75
2021/07/04 11:35:51;;;;;;;;;;;16.70;99.90;;;;;;5095247;28;20022;-76
2021/07/04 11:38:20;;;;;;;;;;;16.70;99.90;;;;;;5095451;28;19924;-75
2021/07/04 11:40:47;;;;;;;;;;;16.70;99.90;;;;;;5095269;28;19924;-75
2021/07/04 11:43:14;;;;;;;;;;;16.70;99.90;;;;;;5095253;28;19924;-75
2021/07/04 11:45:40;;;;;;;;;;;16.70;99.90;;;;;;5090042;28;19966;-74
2021/07/04 11:48:07;;;;;;;;;;;16.60;99.90;;;;;;5093227;28;19924;-74
2021/07/04 11:50:45;;;;;;;;;;;16.60;99.90;;;;;;5095107;28;20279;-74
2021/07/04 11:53:11;;;;;;;;;;;16.60;99.90;;;;;;5094981;28;19935;-74
2021/07/04 11:55:53;;;;;;;;;;;16.60;99.90;;;;;;5095033;28;19959;-74
2021/07/04 11:58:25;;;;;;;;;;;16.70;99.90;;;;;;5094550;28;19934;-74
2021/07/04 12:00:51;;;;;;;;;;;16.60;99.90;;;;;;5095059;28;19935;-74
2021/07/04 12:03:21;;;;;;;;;;;16.70;99.90;;;;;;5095146;28;19934;-75
2021/07/04 12:05:48;;;;;;;;;;;16.70;99.90;;;;;;5094806;28;20355;-74
2021/07/04 12:08:14;;;;;;;;;;;16.60;99.90;;;;;;5095091;28;20252;-74
2021/07/04 12:10:48;;;;;;;;;;;16.60;99.90;;;;;;5095303;28;19924;-74
2021/07/04 12:13:15;;;;;;;;;;;16.60;99.90;;;;;;5095123;28;19955;-74
2021/07/04 12:15:48;;;;;;;;;;;16.60;99.90;;;;;;5095012;28;19990;-74
2021/07/04 12:18:15;;;;;;;;;;;16.60;99.90;;;;;;5094906;28;20027;-74
2021/07/04 12:20:42;;;;;;;;;;;16.60;99.90;;;;;;5094919;28;20295;-74
2021/07/04 12:23:12;;;;;;;;;;;16.60;99.90;;;;;;5093846;28;19938;-73
2021/07/04 12:25:42;;;;;;;;;;;16.60;99.90;;;;;;5094340;28;19939;-77
2021/07/04 12:28:09;;;;;;;;;;;16.70;99.90;;;;;;5095119;28;19924;-76
2021/07/04 12:30:37;;;;;;;;;;;16.70;99.90;;;;;;5094937;28;19999;-76
2021/07/04 12:33:06;;;;;;;;;;;16.80;99.90;;;;;;5094911;28;19934;-75
2021/07/04 12:35:38;;;;;;;;;;;16.90;99.90;;;;;;5092729;28;20579;-75
2021/07/04 12:38:05;;;;;;;;;;;16.90;99.90;;;;;;5088480;28;19924;-75
2021/07/04 12:40:37;;;;;;;;;;;16.90;99.90;;;;;;5093733;28;19924;-74
2021/07/04 12:43:08;;;;;;;;;;;16.90;99.90;;;;;;5094901;28;19936;-73
2021/07/04 12:45:35;;;;;;;;;;;16.90;99.90;;;;;;5094577;28;20128;-74
2021/07/04 12:48:03;;;;;;;;;;;16.90;99.90;;;;;;5094675;28;19934;-74
2021/07/04 12:50:38;;;;;;;;;;;16.90;99.90;;;;;;5094786;28;19932;-74
2021/07/04 12:53:08;;;;;;;;;;;17.00;99.90;;;;;;5094453;28;19928;-73
2021/07/04 12:56:02;;;;;;;;;;;17.10;99.90;;;;;;5094461;28;19935;-73
2021/07/04 12:58:30;;;;;;;;;;;17.20;99.90;;;;;;5098003;28;19935;-74
2021/07/04 13:01:08;;;;;;;;;;;17.20;99.90;;;;;;5098093;28;19924;-74
2021/07/04 13:03:35;;;;;;;;;;;17.30;99.90;;;;;;5098161;28;20363;-74
2021/07/04 13:06:04;;;;;;;;;;;17.40;99.90;;;;;;5098016;28;19924;-74
2021/07/04 13:08:31;;;;;;;;;;;17.40;99.90;;;;;;5097887;28;19975;-73
2021/07/04 13:10:58;;;;;;;;;;;17.40;99.90;;;;;;5097840;28;19924;-74
2021/07/04 13:13:25;;;;;;;;;;;17.50;99.90;;;;;;5097904;28;20272;-74
2021/07/04 13:15:55;;;;;;;;;;;17.50;99.90;;;;;;5097887;28;19963;-73
2021/07/04 13:18:26;;;;;;;;;;;17.60;99.90;;;;;;5096467;28;20014;-73
2021/07/04 13:20:53;;;;;;;;;;;17.60;99.90;;;;;;5077372;28;19925;-73
2021/07/04 13:23:21;;;;;;;;;;;17.70;99.90;;;;;;5079642;28;19925;-74
2021/07/04 13:25:53;;;;;;;;;;;17.70;99.90;;;;;;5097486;28;19924;-74
2021/07/04 13:28:20;;;;;;;;;;;17.80;99.90;;;;;;5097806;28;19993;-74
2021/07/04 13:30:51;;;;;;;;;;;17.80;99.90;;;;;;5096172;28;19924;-73
2021/07/04 13:33:26;;;;;;;;;;;17.90;99.90;;;;;;5097324;28;19924;-74
2021/07/04 13:35:53;;;;;;;;;;;18.10;99.90;;;;;;5097737;28;19998;-74
2021/07/04 13:38:21;;;;;;;;;;;18.20;99.90;;;;;;5097446;28;19924;-74
2021/07/04 13:40:50;;;;;;;;;;;18.40;99.90;;;;;;5097229;28;19924;-73
2021/07/04 13:43:21;;;;;;;;;;;18.40;99.90;;;;;;5097286;28;19924;-73
2021/07/04 13:45:50;;;;;;;;;;;18.50;99.90;;;;;;5097482;28;19924;-73
2021/07/04 13:48:21;;;;;;;;;;;18.50;99.90;;;;;;5097187;28;19934;-73
2021/07/04 13:50:49;;;;;;;;;;;18.60;99.90;;;;;;5097186;28;19924;-73
2021/07/04 13:53:16;;;;;;;;;;;18.60;99.90;;;;;;5096083;28;19928;-73
2021/07/04 13:55:44;;;;;;;;;;;18.60;99.90;;;;;;5097312;28;19932;-73
2021/07/04 13:58:11;;;;;;;;;;;18.60;99.90;;;;;;5096959;28;19931;-73
2021/07/04 14:00:38;;;;;;;;;;;18.70;99.90;;;;;;5096917;28;20344;-73
2021/07/04 14:03:06;;;;;;;;;;;18.70;99.90;;;;;;5097219;28;19949;-73
2021/07/04 14:05:33;;;;;;;;;;;18.60;99.90;;;;;;5096845;28;20018;-73
2021/07/04 14:08:00;;;;;;;;;;;18.50;99.90;;;;;;5095715;28;19934;-74
2021/07/04 14:10:27;;;;;;;;;;;18.50;99.90;;;;;;5096750;28;19932;-73
2021/07/04 14:12:55;;;;;;;;;;;18.40;99.90;;;;;;5097099;28;19924;-73
2021/07/04 14:15:22;;;;;;;;;;;18.40;99.90;;;;;;5096944;28;19928;-73
2021/07/04 14:17:49;;;;;;;;;;;18.40;99.90;;;;;;5096798;28;19935;-73
2021/07/04 14:20:17;;;;;;;;;;;18.40;99.90;;;;;;5096631;28;19928;-73
2021/07/04 14:22:44;;;;;;;;;;;18.40;99.90;;;;;;5096582;28;20302;-74